sensor_id;sensor_type;location;lat;lon;timestamp;pressure;altitude;pressure_sealevel;temperature;humidity
55757;BME280;41676;44.610;44.078;2023-04-10T00:01:22;100796.19;;;6.26;100.00
55757;BME280;41676;44.610;44.078;2023-04-10T00:06:23;100747.47;;;6.09;100.00
55757;BME280;41676;44.610;44.078;2023-04-10T00:11:25;100775.75;;;6.07;100.00
55757;BME280;41676;44.610;44.078;2023-04-10T00:16:26;100791.53;;;6.18;100.00
55757;BME280;41676;44.610;44.078;2023-04-10T00:21:26;100790.31;;;6.22;100.00
55757;BME280;41676;44.610;44.078;2023-04-10T00:26:27;100777.38;;;6.19;100.00
55757;BME280;41676;44.610;44.078;2023-04-10T00:31:29;100765.72;;;6.01;100.00
55757;BME280;41676;44.610;44.078;2023-04-10T00:36:31;100761.13;;;5.93;100.00
55757;BME280;41676;44.610;44.078;2023-04-10T00:41:32;100767.56;;;5.89;100.00
55757;BME280;41676;44.610;44.078;2023-04-10T00:46:36;100783.75;;;5.96;100.00
55757;BME280;41676;44.610;44.078;2023-04-10T00:51:37;100795.47;;;6.03;100.00
55757;BME280;41676;44.610;44.078;2023-04-10T00:56:38;100728.84;;;5.68;100.00
55757;BME280;41676;44.610;44.078;2023-04-10T01:01:40;100799.44;;;6.18;100.00
55757;BME280;41676;44.610;44.078;2023-04-10T01:06:58;100800.84;;;6.22;100.00
55757;BME280;41676;44.610;44.078;2023-04-10T01:12:37;100790.81;;;6.16;100.00
55757;BME280;41676;44.610;44.078;2023-04-10T01:18:06;100707.53;;;5.39;100.00
55757;BME280;41676;44.610;44.078;2023-04-10T01:28:55;100803.22;;;5.72;100.00
55757;BME280;41676;44.610;44.078;2023-04-10T01:34:16;100805.06;;;5.60;100.00
55757;BME280;41676;44.610;44.078;2023-04-10T01:39:21;100765.72;;;5.36;100.00
55757;BME280;41676;44.610;44.078;2023-04-10T01:44:28;100801.78;;;5.68;100.00
55757;BME280;41676;44.610;44.078;2023-04-10T01:49:31;100763.16;;;5.57;100.00
55757;BME280;41676;44.610;44.078;2023-04-10T01:54:32;100767.13;;;5.52;100.00
55757;BME280;41676;44.610;44.078;2023-04-10T01:59:37;100804.31;;;5.69;100.00
55757;BME280;41676;44.610;44.078;2023-04-10T02:04:38;100803.50;;;5.69;100.00
55757;BME280;41676;44.610;44.078;2023-04-10T02:15:04;100788.94;;;5.54;100.00
55757;BME280;41676;44.610;44.078;2023-04-10T02:20:07;100727.47;;;5.10;100.00
55757;BME280;41676;44.610;44.078;2023-04-10T02:25:09;100802.72;;;5.46;100.00
55757;BME280;41676;44.610;44.078;2023-04-10T02:30:10;100780.72;;;5.36;100.00
55757;BME280;41676;44.610;44.078;2023-04-10T02:35:11;100806.19;;;5.35;100.00
55757;BME280;41676;44.610;44.078;2023-04-10T02:40:13;100787.66;;;5.25;100.00
55757;BME280;41676;44.610;44.078;2023-04-10T02:45:14;100722.72;;;4.92;100.00
55757;BME280;41676;44.610;44.078;2023-04-10T02:50:14;100803.53;;;5.46;100.00
55757;BME280;41676;44.610;44.078;2023-04-10T02:55:17;100804.91;;;5.30;100.00
55757;BME280;41676;44.610;44.078;2023-04-10T03:00:18;100805.94;;;5.38;100.00
55757;BME280;41676;44.610;44.078;2023-04-10T03:05:19;100796.84;;;5.42;100.00
55757;BME280;41676;44.610;44.078;2023-04-10T03:10:20;100805.44;;;5.56;100.00
55757;BME280;41676;44.610;44.078;2023-04-10T03:15:21;100694.59;;;4.93;100.00
55757;BME280;41676;44.610;44.078;2023-04-10T03:20:21;100774.19;;;5.51;100.00
55757;BME280;41676;44.610;44.078;2023-04-10T03:25:22;100658.06;;;4.99;100.00
55757;BME280;41676;44.610;44.078;2023-04-10T03:30:23;100830.84;;;6.21;100.00
55757;BME280;41676;44.610;44.078;2023-04-10T03:35:23;100820.88;;;6.46;100.00
55757;BME280;41676;44.610;44.078;2023-04-10T03:40:24;100794.03;;;6.61;100.00
55757;BME280;41676;44.610;44.078;2023-04-10T03:45:25;100827.50;;;7.22;100.00
55757;BME280;41676;44.610;44.078;2023-04-10T03:50:26;100837.63;;;8.26;99.24
55757;BME280;41676;44.610;44.078;2023-04-10T03:55:27;100842.13;;;9.47;96.97
55757;BME280;41676;44.610;44.078;2023-04-10T04:00:28;100776.66;;;10.01;94.70
55757;BME280;41676;44.610;44.078;2023-04-10T04:05:29;100826.50;;;11.11;91.93
55757;BME280;41676;44.610;44.078;2023-04-10T04:10:30;100837.50;;;11.75;89.48
55757;BME280;41676;44.610;44.078;2023-04-10T04:15:30;100830.59;;;12.40;87.22
55757;BME280;41676;44.610;44.078;2023-04-10T04:20:31;100837.31;;;12.91;85.54
55757;BME280;41676;44.610;44.078;2023-04-10T04:25:32;100710.28;;;11.87;84.18
55757;BME280;41676;44.610;44.078;2023-04-10T04:30:33;100847.50;;;12.88;83.28
55757;BME280;41676;44.610;44.078;2023-04-10T04:35:33;100842.78;;;13.06;81.25
55757;BME280;41676;44.610;44.078;2023-04-10T04:40:34;100803.91;;;12.64;80.10
55757;BME280;41676;44.610;44.078;2023-04-10T04:45:35;100840.00;;;12.83;79.31
55757;BME280;41676;44.610;44.078;2023-04-10T04:50:39;100784.47;;;12.39;77.74
55757;BME280;41676;44.610;44.078;2023-04-10T04:55:40;100817.13;;;12.33;79.17
55757;BME280;41676;44.610;44.078;2023-04-10T05:00:41;100749.50;;;11.69;79.02
55757;BME280;41676;44.610;44.078;2023-04-10T05:05:42;100817.59;;;12.20;78.84
55757;BME280;41676;44.610;44.078;2023-04-10T05:10:43;100833.94;;;12.33;78.88
55757;BME280;41676;44.610;44.078;2023-04-10T05:15:44;100787.19;;;12.15;78.96
55757;BME280;41676;44.610;44.078;2023-04-10T05:20:45;100760.16;;;12.26;79.27
55757;BME280;41676;44.610;44.078;2023-04-10T05:25:46;100833.50;;;12.86;78.62
55757;BME280;41676;44.610;44.078;2023-04-10T05:30:47;100825.75;;;13.15;78.20
55757;BME280;41676;44.610;44.078;2023-04-10T05:35:48;100723.13;;;12.64;77.08
55757;BME280;41676;44.610;44.078;2023-04-10T05:40:49;100805.72;;;13.19;77.39
55757;BME280;41676;44.610;44.078;2023-04-10T05:45:50;100731.06;;;13.11;76.77
55757;BME280;41676;44.610;44.078;2023-04-10T05:50:51;100779.56;;;14.00;76.04
55757;BME280;41676;44.610;44.078;2023-04-10T05:55:52;100783.75;;;14.70;75.31
55757;BME280;41676;44.610;44.078;2023-04-10T06:00:54;100768.13;;;15.03;74.56
55757;BME280;41676;44.610;44.078;2023-04-10T06:05:55;100776.38;;;15.38;73.51
55757;BME280;41676;44.610;44.078;2023-04-10T06:10:57;100787.34;;;15.80;73.48
55757;BME280;41676;44.610;44.078;2023-04-10T06:15:58;100685.75;;;15.35;72.71
55757;BME280;41676;44.610;44.078;2023-04-10T06:20:58;100776.19;;;16.26;72.32
55757;BME280;41676;44.610;44.078;2023-04-10T06:26:01;100768.91;;;16.48;71.25
55757;BME280;41676;44.610;44.078;2023-04-10T06:31:05;100768.41;;;17.00;71.67
55757;BME280;41676;44.610;44.078;2023-04-10T06:36:07;100743.34;;;17.34;70.61
55757;BME280;41676;44.610;44.078;2023-04-10T06:41:08;100759.91;;;17.51;69.31
55757;BME280;41676;44.610;44.078;2023-04-10T06:46:08;100750.44;;;17.69;68.23
55757;BME280;41676;44.610;44.078;2023-04-10T06:51:09;100726.47;;;18.27;66.88
55757;BME280;41676;44.610;44.078;2023-04-10T06:56:10;100702.25;;;18.40;63.11
55757;BME280;41676;44.610;44.078;2023-04-10T07:01:11;100676.75;;;18.56;61.96
55757;BME280;41676;44.610;44.078;2023-04-10T07:06:12;100642.81;;;18.55;60.66
55757;BME280;41676;44.610;44.078;2023-04-10T07:11:12;100717.94;;;19.15;59.43
55757;BME280;41676;44.610;44.078;2023-04-10T07:16:13;100672.13;;;18.83;57.82
55757;BME280;41676;44.610;44.078;2023-04-10T07:21:15;100700.25;;;19.26;58.24
55757;BME280;41676;44.610;44.078;2023-04-10T07:26:16;100626.25;;;19.03;57.69
55757;BME280;41676;44.610;44.078;2023-04-10T07:31:17;100614.66;;;19.03;55.33
55757;BME280;41676;44.610;44.078;2023-04-10T07:36:18;100696.69;;;19.38;56.28
55757;BME280;41676;44.610;44.078;2023-04-10T07:41:18;100691.34;;;19.57;56.69
55757;BME280;41676;44.610;44.078;2023-04-10T07:46:19;100641.03;;;19.51;55.53
55757;BME280;41676;44.610;44.078;2023-04-10T07:51:21;100613.00;;;19.33;54.84
55757;BME280;41676;44.610;44.078;2023-04-10T07:56:22;100599.03;;;19.18;54.58
55757;BME280;41676;44.610;44.078;2023-04-10T08:01:22;100676.84;;;19.58;53.53
55757;BME280;41676;44.610;44.078;2023-04-10T08:06:23;100572.97;;;19.12;53.33
55757;BME280;41676;44.610;44.078;2023-04-10T08:16:30;100611.41;;;19.51;52.38
55757;BME280;41676;44.610;44.078;2023-04-10T08:21:31;100625.69;;;19.76;51.83
55757;BME280;41676;44.610;44.078;2023-04-10T08:26:32;100633.25;;;19.93;51.78
55757;BME280;41676;44.610;44.078;2023-04-10T08:31:32;100555.41;;;19.53;51.28
55757;BME280;41676;44.610;44.078;2023-04-10T08:36:33;100559.97;;;19.77;51.55
55757;BME280;41676;44.610;44.078;2023-04-10T08:41:34;100605.22;;;20.12;51.94
55757;BME280;41676;44.610;44.078;2023-04-10T08:46:35;100588.06;;;20.25;51.76
55757;BME280;41676;44.610;44.078;2023-04-10T08:51:48;100614.91;;;20.57;51.41
55757;BME280;41676;44.610;44.078;2023-04-10T08:56:52;100526.81;;;20.44;49.91
55757;BME280;41676;44.610;44.078;2023-04-10T09:01:53;100590.56;;;20.75;49.79
55757;BME280;41676;44.610;44.078;2023-04-10T09:06:54;100556.34;;;20.39;49.49
55757;BME280;41676;44.610;44.078;2023-04-10T09:11:56;100562.25;;;20.47;49.97
55757;BME280;41676;44.610;44.078;2023-04-10T09:17:23;100555.94;;;20.72;48.07
55757;BME280;41676;44.610;44.078;2023-04-10T09:22:32;100498.38;;;20.29;47.07
55757;BME280;41676;44.610;44.078;2023-04-10T09:27:35;100478.66;;;20.29;46.93
55757;BME280;41676;44.610;44.078;2023-04-10T09:32:43;100546.50;;;20.63;45.67
55757;BME280;41676;44.610;44.078;2023-04-10T09:37:44;100546.66;;;20.49;46.56
55757;BME280;41676;44.610;44.078;2023-04-10T09:42:46;100557.56;;;20.24;46.18
55757;BME280;41676;44.610;44.078;2023-04-10T09:48:19;100553.78;;;20.14;47.70
55757;BME280;41676;44.610;44.078;2023-04-10T09:53:20;100538.63;;;19.76;47.75
55757;BME280;41676;44.610;44.078;2023-04-10T09:58:21;100534.66;;;20.15;46.97
55757;BME280;41676;44.610;44.078;2023-04-10T10:03:24;100522.97;;;19.84;45.27
55757;BME280;41676;44.610;44.078;2023-04-10T10:08:25;100543.63;;;20.09;46.80
55757;BME280;41676;44.610;44.078;2023-04-10T10:13:33;100544.84;;;19.95;45.78
55757;BME280;41676;44.610;44.078;2023-04-10T10:18:50;100529.78;;;20.05;46.00
55757;BME280;41676;44.610;44.078;2023-04-10T10:23:56;100549.41;;;19.94;45.65
55757;BME280;41676;44.610;44.078;2023-04-10T10:29:05;100468.91;;;19.79;45.47
55757;BME280;41676;44.610;44.078;2023-04-10T10:34:06;100508.69;;;20.33;45.20
55757;BME280;41676;44.610;44.078;2023-04-10T10:39:33;100527.28;;;20.71;43.21
55757;BME280;41676;44.610;44.078;2023-04-10T10:44:48;100491.59;;;20.69;43.30
55757;BME280;41676;44.610;44.078;2023-04-10T10:50:00;100485.34;;;20.57;42.50
55757;BME280;41676;44.610;44.078;2023-04-10T11:00:26;100442.44;;;20.79;42.28
55757;BME280;41676;44.610;44.078;2023-04-10T11:06:06;100459.25;;;21.16;40.37
55757;BME280;41676;44.610;44.078;2023-04-10T11:11:10;100469.47;;;21.02;40.41
55757;BME280;41676;44.610;44.078;2023-04-10T11:16:11;100423.75;;;20.54;42.32
55757;BME280;41676;44.610;44.078;2023-04-10T11:21:16;100442.47;;;21.14;41.61
55757;BME280;41676;44.610;44.078;2023-04-10T11:31:36;100436.66;;;21.69;40.48
55757;BME280;41676;44.610;44.078;2023-04-10T11:36:39;100404.16;;;21.17;39.45
55757;BME280;41676;44.610;44.078;2023-04-10T11:41:41;100428.81;;;21.32;40.12
55757;BME280;41676;44.610;44.078;2023-04-10T11:46:44;100411.56;;;21.33;38.95
55757;BME280;41676;44.610;44.078;2023-04-10T11:51:50;100395.38;;;20.86;39.75
55757;BME280;41676;44.610;44.078;2023-04-10T11:57:05;100400.06;;;21.14;40.39
55757;BME280;41676;44.610;44.078;2023-04-10T12:02:11;100385.16;;;21.00;40.16
55757;BME280;41676;44.610;44.078;2023-04-10T12:07:14;100397.25;;;20.62;40.23
55757;BME280;41676;44.610;44.078;2023-04-10T12:12:14;100371.44;;;20.24;40.95
55757;BME280;41676;44.610;44.078;2023-04-10T12:17:15;100391.75;;;20.39;40.37
55757;BME280;41676;44.610;44.078;2023-04-10T12:22:17;100356.91;;;20.25;40.07
55757;BME280;41676;44.610;44.078;2023-04-10T12:27:24;100385.03;;;20.83;40.00
55757;BME280;41676;44.610;44.078;2023-04-10T12:32:26;100366.81;;;20.67;40.13
55757;BME280;41676;44.610;44.078;2023-04-10T12:37:49;100379.41;;;20.96;40.26
55757;BME280;41676;44.610;44.078;2023-04-10T12:42:50;100376.94;;;21.07;39.30
55757;BME280;41676;44.610;44.078;2023-04-10T12:47:51;100371.06;;;20.63;38.74
55757;BME280;41676;44.610;44.078;2023-04-10T12:53:03;100356.63;;;20.57;38.89
55757;BME280;41676;44.610;44.078;2023-04-10T12:58:15;100357.69;;;20.68;38.41
55757;BME280;41676;44.610;44.078;2023-04-10T13:03:27;100364.59;;;20.64;39.01
55757;BME280;41676;44.610;44.078;2023-04-10T13:11:30;100299.56;;;20.42;40.55
55757;BME280;41676;44.610;44.078;2023-04-10T13:16:31;100352.56;;;20.36;39.55
55757;BME280;41676;44.610;44.078;2023-04-10T13:21:32;100350.44;;;19.84;40.31
55757;BME280;41676;44.610;44.078;2023-04-10T13:26:32;100346.88;;;20.02;41.45
55757;BME280;41676;44.610;44.078;2023-04-10T13:31:33;100292.31;;;19.58;41.64
55757;BME280;41676;44.610;44.078;2023-04-10T13:36:34;100362.50;;;19.82;41.72
55757;BME280;41676;44.610;44.078;2023-04-10T13:41:35;100350.56;;;19.59;42.04
55757;BME280;41676;44.610;44.078;2023-04-10T13:46:35;100253.81;;;19.09;42.00
55757;BME280;41676;44.610;44.078;2023-04-10T13:51:36;100362.81;;;19.74;41.92
55757;BME280;41676;44.610;44.078;2023-04-10T13:56:37;100356.91;;;19.47;42.43
55757;BME280;41676;44.610;44.078;2023-04-10T14:01:38;100363.50;;;19.32;43.18
55757;BME280;41676;44.610;44.078;2023-04-10T14:06:38;100348.50;;;19.06;43.75
55757;BME280;41676;44.610;44.078;2023-04-10T14:11:40;100338.69;;;18.93;44.09
55757;BME280;41676;44.610;44.078;2023-04-10T14:16:40;100351.25;;;19.00;44.66
55757;BME280;41676;44.610;44.078;2023-04-10T14:21:41;100243.25;;;18.28;44.81
55757;BME280;41676;44.610;44.078;2023-04-10T14:26:43;100336.81;;;18.76;45.38
55757;BME280;41676;44.610;44.078;2023-04-10T14:31:44;100336.38;;;18.72;45.59
55757;BME280;41676;44.610;44.078;2023-04-10T14:36:45;100331.56;;;18.56;45.68
55757;BME280;41676;44.610;44.078;2023-04-10T14:41:46;100237.22;;;17.82;46.15
55757;BME280;41676;44.610;44.078;2023-04-10T14:46:47;100310.81;;;18.13;46.50
55757;BME280;41676;44.610;44.078;2023-04-10T14:51:47;100304.31;;;17.95;46.78
55757;BME280;41676;44.610;44.078;2023-04-10T14:56:49;100309.34;;;17.85;47.43
55757;BME280;41676;44.610;44.078;2023-04-10T15:01:50;100248.69;;;17.32;47.81
55757;BME280;41676;44.610;44.078;2023-04-10T15:06:53;100337.94;;;17.66;47.99
55757;BME280;41676;44.610;44.078;2023-04-10T15:11:53;100286.28;;;17.32;48.46
55757;BME280;41676;44.610;44.078;2023-04-10T15:16:56;100312.28;;;17.32;49.11
55757;BME280;41676;44.610;44.078;2023-04-10T15:21:56;100303.88;;;17.15;49.94
55757;BME280;41676;44.610;44.078;2023-04-10T15:26:57;100298.59;;;16.88;50.14
55757;BME280;41676;44.610;44.078;2023-04-10T15:31:59;100317.78;;;16.85;51.20
55757;BME280;41676;44.610;44.078;2023-04-10T15:37:00;100236.78;;;16.17;51.61
55757;BME280;41676;44.610;44.078;2023-04-10T15:42:01;100290.59;;;16.29;52.21
55757;BME280;41676;44.610;44.078;2023-04-10T15:47:04;100253.69;;;15.84;52.86
55757;BME280;41676;44.610;44.078;2023-04-10T15:52:05;100326.66;;;16.06;53.49
55757;BME280;41676;44.610;44.078;2023-04-10T15:57:06;100320.00;;;15.82;54.24
55757;BME280;41676;44.610;44.078;2023-04-10T16:02:07;100316.47;;;15.62;54.51
55757;BME280;41676;44.610;44.078;2023-04-10T16:07:08;100328.19;;;15.61;54.78
55757;BME280;41676;44.610;44.078;2023-04-10T16:12:10;100327.09;;;15.42;55.31
55757;BME280;41676;44.610;44.078;2023-04-10T16:17:10;100306.38;;;15.16;55.63
55757;BME280;41676;44.610;44.078;2023-04-10T16:22:11;100327.38;;;15.12;56.44
55757;BME280;41676;44.610;44.078;2023-04-10T16:27:12;100320.50;;;14.96;56.75
55757;BME280;41676;44.610;44.078;2023-04-10T16:32:12;100304.44;;;14.61;56.97
55757;BME280;41676;44.610;44.078;2023-04-10T16:37:13;100281.81;;;14.36;57.55
55757;BME280;41676;44.610;44.078;2023-04-10T16:42:14;100342.47;;;14.57;57.68
55757;BME280;41676;44.610;44.078;2023-04-10T16:47:15;100317.94;;;14.32;57.95
55757;BME280;41676;44.610;44.078;2023-04-10T16:52:16;100252.97;;;13.82;58.26
55757;BME280;41676;44.610;44.078;2023-04-10T16:57:16;100337.53;;;14.18;58.64
55757;BME280;41676;44.610;44.078;2023-04-10T17:02:17;100333.94;;;14.04;58.91
55757;BME280;41676;44.610;44.078;2023-04-10T17:07:18;100352.31;;;13.92;59.57
55757;BME280;41676;44.610;44.078;2023-04-10T17:12:19;100228.34;;;13.07;60.38
55757;BME280;41676;44.610;44.078;2023-04-10T17:17:19;100329.84;;;13.65;60.48
55757;BME280;41676;44.610;44.078;2023-04-10T17:22:20;100335.88;;;13.52;61.15
55757;BME280;41676;44.610;44.078;2023-04-10T17:27:22;100344.25;;;13.49;61.58
55757;BME280;41676;44.610;44.078;2023-04-10T17:32:23;100287.22;;;13.06;62.53
55757;BME280;41676;44.610;44.078;2023-04-10T17:37:24;100313.34;;;13.10;62.89
55757;BME280;41676;44.610;44.078;2023-04-10T17:42:24;100319.59;;;13.02;63.46
55757;BME280;41676;44.610;44.078;2023-04-10T17:47:26;100311.75;;;12.86;64.11
55757;BME280;41676;44.610;44.078;2023-04-10T17:52:27;100347.06;;;12.88;65.60
55757;BME280;41676;44.610;44.078;2023-04-10T17:57:28;100286.66;;;12.36;65.73
55757;BME280;41676;44.610;44.078;2023-04-10T18:02:28;100343.53;;;12.58;66.50
55757;BME280;41676;44.610;44.078;2023-04-10T18:07:29;100271.31;;;12.00;67.14
55757;BME280;41676;44.610;44.078;2023-04-10T18:12:30;100193.03;;;11.49;67.75
55757;BME280;41676;44.610;44.078;2023-04-10T18:17:31;100334.34;;;12.23;68.16
55757;BME280;41676;44.610;44.078;2023-04-10T18:22:32;100174.44;;;11.17;68.67
55757;BME280;41676;44.610;44.078;2023-04-10T18:27:33;100252.13;;;11.59;69.20
55757;BME280;41676;44.610;44.078;2023-04-10T18:32:35;100308.19;;;11.80;69.87
55757;BME280;41676;44.610;44.078;2023-04-10T18:37:36;100180.56;;;10.95;70.41
55757;BME280;41676;44.610;44.078;2023-04-10T18:42:40;100302.50;;;11.60;70.93
55757;BME280;41676;44.610;44.078;2023-04-10T18:47:40;100320.94;;;11.62;71.45
55757;BME280;41676;44.610;44.078;2023-04-10T18:52:41;100259.69;;;11.16;72.07
55757;BME280;41676;44.610;44.078;2023-04-10T18:57:42;100311.44;;;11.36;73.05
55757;BME280;41676;44.610;44.078;2023-04-10T19:02:43;100298.53;;;11.25;73.88
55757;BME280;41676;44.610;44.078;2023-04-10T19:07:43;100297.38;;;11.28;74.12
55757;BME280;41676;44.610;44.078;2023-04-10T19:12:44;100289.56;;;11.26;74.68
55757;BME280;41676;44.610;44.078;2023-04-10T19:17:45;100255.72;;;11.12;75.64
55757;BME280;41676;44.610;44.078;2023-04-10T19:22:46;100285.72;;;11.29;76.90
55757;BME280;41676;44.610;44.078;2023-04-10T19:27:47;100220.78;;;10.92;76.79
55757;BME280;41676;44.610;44.078;2023-04-10T19:32:47;100285.84;;;11.35;76.74
55757;BME280;41676;44.610;44.078;2023-04-10T19:37:48;100258.13;;;11.30;76.55
55757;BME280;41676;44.610;44.078;2023-04-10T19:42:49;100274.97;;;11.45;76.54
55757;BME280;41676;44.610;44.078;2023-04-10T19:47:50;100263.16;;;11.48;76.96
55757;BME280;41676;44.610;44.078;2023-04-10T19:52:51;100271.16;;;11.48;76.70
55757;BME280;41676;44.610;44.078;2023-04-10T19:57:51;100263.53;;;11.45;76.51
55757;BME280;41676;44.610;44.078;2023-04-10T20:02:52;100255.06;;;11.41;77.37
55757;BME280;41676;44.610;44.078;2023-04-10T20:07:53;100221.59;;;11.24;77.21
55757;BME280;41676;44.610;44.078;2023-04-10T20:12:54;100141.78;;;10.78;77.17
55757;BME280;41676;44.610;44.078;2023-04-10T20:17:56;100134.16;;;10.74;78.06
55757;BME280;41676;44.610;44.078;2023-04-10T20:22:57;100191.78;;;11.05;78.56
55757;BME280;41676;44.610;44.078;2023-04-10T20:28:00;100228.38;;;11.26;79.02
55757;BME280;41676;44.610;44.078;2023-04-10T20:33:02;100238.53;;;11.31;79.19
55757;BME280;41676;44.610;44.078;2023-04-10T20:38:04;100057.53;;;10.16;79.97
55757;BME280;41676;44.610;44.078;2023-04-10T20:43:05;100213.50;;;11.17;80.49
55757;BME280;41676;44.610;44.078;2023-04-10T20:48:13;100184.63;;;11.06;81.21
55757;BME280;41676;44.610;44.078;2023-04-10T20:53:15;100190.25;;;11.11;82.55
55757;BME280;41676;44.610;44.078;2023-04-10T20:58:16;100178.03;;;11.02;82.15
55757;BME280;41676;44.610;44.078;2023-04-10T21:03:16;100191.09;;;11.11;82.79
55757;BME280;41676;44.610;44.078;2023-04-10T21:08:17;100180.97;;;11.07;84.69
55757;BME280;41676;44.610;44.078;2023-04-10T21:13:18;100168.69;;;11.06;85.00
55757;BME280;41676;44.610;44.078;2023-04-10T21:18:19;100159.94;;;10.97;87.05
55757;BME280;41676;44.610;44.078;2023-04-10T21:23:20;100169.63;;;10.90;87.93
55757;BME280;41676;44.610;44.078;2023-04-10T21:28:21;100102.25;;;10.43;88.20
55757;BME280;41676;44.610;44.078;2023-04-10T21:33:21;100180.06;;;10.91;90.24
55757;BME280;41676;44.610;44.078;2023-04-10T21:38:22;100147.59;;;10.73;89.14
55757;BME280;41676;44.610;44.078;2023-04-10T21:43:23;100124.94;;;10.62;90.61
55757;BME280;41676;44.610;44.078;2023-04-10T21:48:24;100153.34;;;10.85;90.83
55757;BME280;41676;44.610;44.078;2023-04-10T21:53:24;100068.97;;;10.33;92.12
55757;BME280;41676;44.610;44.078;2023-04-10T21:58:25;100131.66;;;10.73;92.52
55757;BME280;41676;44.610;44.078;2023-04-10T22:03:28;100145.25;;;10.78;93.44
55757;BME280;41676;44.610;44.078;2023-04-10T22:08:29;100062.16;;;10.22;94.43
55757;BME280;41676;44.610;44.078;2023-04-10T22:13:31;100106.22;;;10.47;95.48
55757;BME280;41676;44.610;44.078;2023-04-10T22:18:32;100098.66;;;10.36;95.28
55757;BME280;41676;44.610;44.078;2023-04-10T22:23:33;100081.09;;;10.27;95.07
55757;BME280;41676;44.610;44.078;2023-04-10T22:28:33;100017.69;;;9.85;94.82
55757;BME280;41676;44.610;44.078;2023-04-10T22:33:34;100131.91;;;10.55;95.73
55757;BME280;41676;44.610;44.078;2023-04-10T22:38:36;100124.13;;;10.54;96.16
55757;BME280;41676;44.610;44.078;2023-04-10T22:43:40;100071.81;;;10.15;96.53
55757;BME280;41676;44.610;44.078;2023-04-10T22:48:41;100118.84;;;10.45;97.80
55757;BME280;41676;44.610;44.078;2023-04-10T22:53:42;100109.75;;;10.40;97.99
55757;BME280;41676;44.610;44.078;2023-04-10T22:58:43;100092.38;;;10.21;97.99
55757;BME280;41676;44.610;44.078;2023-04-10T23:03:44;100114.91;;;10.33;99.03
55757;BME280;41676;44.610;44.078;2023-04-10T23:08:45;100058.78;;;9.97;98.75
55757;BME280;41676;44.610;44.078;2023-04-10T23:13:45;100109.78;;;10.23;98.96
55757;BME280;41676;44.610;44.078;2023-04-10T23:18:48;100065.59;;;9.91;99.24
55757;BME280;41676;44.610;44.078;2023-04-10T23:23:50;100112.28;;;10.17;98.86
55757;BME280;41676;44.610;44.078;2023-04-10T23:28:50;100102.91;;;9.90;98.66
55757;BME280;41676;44.610;44.078;2023-04-10T23:33:52;100115.00;;;9.92;99.91
55757;BME280;41676;44.610;44.078;2023-04-10T23:38:53;100101.78;;;9.76;99.53
55757;BME280;41676;44.610;44.078;2023-04-10T23:43:53;100089.19;;;9.62;99.46
55757;BME280;41676;44.610;44.078;2023-04-10T23:48:56;100142.88;;;9.88;100.00
55757;BME280;41676;44.610;44.078;2023-04-10T23:53:57;100133.94;;;9.73;99.53
55757;BME280;41676;44.610;44.078;2023-04-10T23:58:59;100107.28;;;9.50;100.00
